createdAt,value
2019-05-10T00:00:09.853Z,12.14
2019-05-10T00:02:56.171Z,12.26
2019-05-10T00:05:41.695Z,12.25
2019-05-10T00:08:27.447Z,12.22
2019-05-10T00:11:26.831Z,12.25
2019-05-10T00:14:01.758Z,12.24
2019-05-10T00:16:31.235Z,12.21
2019-05-10T00:18:58.319Z,11.87
2019-05-10T00:21:25.360Z,12.06
2019-05-10T00:23:52.665Z,12.04
2019-05-10T00:26:19.679Z,12.14
2019-05-10T00:28:46.911Z,12.05
2019-05-10T00:31:14.126Z,12.20
2019-05-10T00:33:41.628Z,12.21
2019-05-10T00:36:08.702Z,12.05
2019-05-10T00:38:35.724Z,12.05
2019-05-10T00:41:02.802Z,12.05
2019-05-10T00:43:30.286Z,12.02
2019-05-10T00:45:58.458Z,12.19
2019-05-10T00:48:25.546Z,12.25
2019-05-10T00:50:52.614Z,12.01
2019-05-10T00:53:20.020Z,12.14
2019-05-10T00:55:47.154Z,12.06
2019-05-10T00:58:14.256Z,12.00
2019-05-10T01:00:41.402Z,11.87
2019-05-10T01:03:08.825Z,11.81
2019-05-10T01:05:35.804Z,11.92
2019-05-10T01:08:02.901Z,11.81
2019-05-10T01:10:29.903Z,11.88
2019-05-10T01:12:57.478Z,11.87
2019-05-10T01:15:24.463Z,11.96
2019-05-10T01:17:51.463Z,11.92
2019-05-10T01:20:18.474Z,11.82
2019-05-10T01:22:45.852Z,11.93
2019-05-10T01:25:12.946Z,11.60
2019-05-10T01:27:39.951Z,11.56
2019-05-10T01:30:07.240Z,11.55
2019-05-10T01:32:34.787Z,11.52
2019-05-10T01:35:02.116Z,11.34
2019-05-10T01:37:29.097Z,11.48
2019-05-10T01:39:56.213Z,11.08
2019-05-10T01:42:23.693Z,11.33
2019-05-10T01:44:50.699Z,11.22
2019-05-10T01:47:17.762Z,11.24
2019-05-10T01:49:44.762Z,11.12
2019-05-10T01:52:11.808Z,11.28
2019-05-10T01:54:38.857Z,10.79
2019-05-10T01:57:06.395Z,10.88
2019-05-10T01:59:33.874Z,10.94
2019-05-10T02:02:00.898Z,10.96
2019-05-10T02:04:27.917Z,10.90
2019-05-10T02:06:54.952Z,10.81
2019-05-10T02:09:22.827Z,10.89
2019-05-10T02:11:49.838Z,10.76
2019-05-10T02:14:16.856Z,10.74
2019-05-10T02:16:43.976Z,10.92
2019-05-10T02:19:11.380Z,10.72
2019-05-10T02:21:38.384Z,10.91
2019-05-10T02:24:05.392Z,10.67
2019-05-10T02:26:32.395Z,10.55
2019-05-10T02:29:00.955Z,10.77
2019-05-10T02:31:27.972Z,10.55
2019-05-10T02:33:55.112Z,10.63
2019-05-10T02:36:22.121Z,10.66
2019-05-10T02:38:49.725Z,10.69
2019-05-10T02:41:16.784Z,10.77
2019-05-10T02:43:43.763Z,10.64
2019-05-10T02:46:10.756Z,10.92
2019-05-10T02:48:39.258Z,10.62
2019-05-10T02:51:06.261Z,10.94
2019-05-10T02:53:33.644Z,10.85
2019-05-10T02:56:02.059Z,10.70
2019-05-10T02:58:30.706Z,10.84
2019-05-10T03:01:00.380Z,11.01
2019-05-10T03:03:31.075Z,10.62
2019-05-10T03:06:01.958Z,10.81
2019-05-10T03:08:45.275Z,10.94
2019-05-10T03:11:13.975Z,10.73
2019-05-10T03:13:46.510Z,10.76
2019-05-10T03:16:17.799Z,10.70
2019-05-10T03:18:47.938Z,10.88
2019-05-10T03:21:16.911Z,10.85
2019-05-10T03:23:44.552Z,11.00
2019-05-10T03:26:11.764Z,11.18
2019-05-10T03:28:39.198Z,10.81
2019-05-10T03:31:06.399Z,10.80
2019-05-10T03:33:33.463Z,10.80
2019-05-10T03:36:00.457Z,10.53
2019-05-10T03:38:28.573Z,10.67
2019-05-10T03:40:55.750Z,10.75
2019-05-10T03:43:22.728Z,10.63
2019-05-10T03:45:50.112Z,10.63
2019-05-10T03:48:17.538Z,10.56
2019-05-10T03:50:45.045Z,10.54
2019-05-10T03:53:12.008Z,10.51
2019-05-10T03:55:39.475Z,10.79
2019-05-10T03:58:06.480Z,10.83
2019-05-10T04:00:33.726Z,10.69
2019-05-10T04:03:00.967Z,10.53
2019-05-10T04:05:28.436Z,10.66
2019-05-10T04:07:55.582Z,10.54
2019-05-10T04:10:24.180Z,10.79
2019-05-10T04:12:51.339Z,10.47
2019-05-10T04:15:19.190Z,10.69
2019-05-10T04:17:50.137Z,10.62
2019-05-10T04:20:15.595Z,10.72
2019-05-10T04:22:42.706Z,10.79
2019-05-10T04:25:11.138Z,10.82
2019-05-10T04:27:38.144Z,10.79
2019-05-10T04:30:05.786Z,10.91
2019-05-10T04:32:32.832Z,10.95
2019-05-10T04:35:00.286Z,11.06
2019-05-10T04:37:27.280Z,10.87
2019-05-10T04:39:54.283Z,10.84
2019-05-10T04:42:21.322Z,10.82
2019-05-10T04:44:52.910Z,10.96
2019-05-10T04:47:19.614Z,10.99
2019-05-10T04:49:47.455Z,11.09
2019-05-10T04:52:15.150Z,10.82
2019-05-10T04:54:42.809Z,10.96
2019-05-10T04:57:09.955Z,11.03
2019-05-10T04:59:39.161Z,11.20
2019-05-10T05:02:06.182Z,11.36
2019-05-10T05:04:33.561Z,11.11
2019-05-10T05:07:00.582Z,11.02
2019-05-10T05:09:27.650Z,10.99
2019-05-10T05:12:01.087Z,11.18
2019-05-10T05:14:31.573Z,11.23
2019-05-10T05:16:58.721Z,11.13
2019-05-10T05:19:30.129Z,11.05
2019-05-10T05:21:57.266Z,11.09
2019-05-10T05:24:24.563Z,11.14
2019-05-10T05:26:51.893Z,11.25
2019-05-10T05:29:21.610Z,11.22
2019-05-10T05:31:54.068Z,11.34
2019-05-10T05:34:17.617Z,11.39
2019-05-10T05:36:45.038Z,11.43
2019-05-10T05:39:12.011Z,11.36
2019-05-10T05:41:47.968Z,11.47
2019-05-10T05:44:09.431Z,11.46
2019-05-10T05:46:36.951Z,11.26
2019-05-10T05:49:03.953Z,11.44
2019-05-10T05:51:32.493Z,11.36
2019-05-10T05:54:03.765Z,11.47
2019-05-10T05:56:29.717Z,11.32
2019-05-10T05:58:56.806Z,11.20
2019-05-10T06:01:28.798Z,11.30
2019-05-10T06:03:52.850Z,11.51
2019-05-10T06:06:23.370Z,11.83
2019-05-10T06:08:49.275Z,11.76
2019-05-10T06:11:18.182Z,11.69
2019-05-10T06:13:46.155Z,11.66
2019-05-10T06:16:15.310Z,11.97
2019-05-10T06:18:47.277Z,11.89
2019-05-10T06:21:11.533Z,11.93
2019-05-10T06:23:38.566Z,11.80
2019-05-10T06:26:06.239Z,11.95
2019-05-10T06:28:57.692Z,11.85
2019-05-10T06:31:02.616Z,11.86
2019-05-10T06:33:29.634Z,12.15
2019-05-10T06:35:56.782Z,12.25
2019-05-10T06:38:25.170Z,12.32
2019-05-10T06:40:52.201Z,12.29
2019-05-10T06:43:19.218Z,12.06
2019-05-10T06:45:51.776Z,12.04
2019-05-10T06:48:25.970Z,12.41
2019-05-10T06:50:44.531Z,12.43
2019-05-10T06:53:11.847Z,12.14
2019-05-10T06:55:39.158Z,12.40
2019-05-10T06:58:06.272Z,12.56
2019-05-10T07:00:38.194Z,12.45
2019-05-10T07:03:02.386Z,12.50
2019-05-10T07:05:29.706Z,12.02
2019-05-10T07:07:59.449Z,11.95
2019-05-10T07:10:25.773Z,12.23
2019-05-10T07:12:57.384Z,11.58
2019-05-10T07:15:22.399Z,12.15
2019-05-10T07:17:49.506Z,12.10
2019-05-10T07:20:16.566Z,12.11
2019-05-10T07:22:44.016Z,12.01
2019-05-10T07:25:11.132Z,12.16
2019-05-10T07:27:38.953Z,12.32
2019-05-10T07:30:06.691Z,12.85
2019-05-10T07:32:34.126Z,12.52
2019-05-10T07:35:01.492Z,12.36
2019-05-10T07:37:29.142Z,12.86
2019-05-10T07:39:56.146Z,12.44
2019-05-10T07:42:23.938Z,12.29
2019-05-10T07:44:50.956Z,12.57
2019-05-10T07:47:23.793Z,12.74
2019-05-10T07:49:49.822Z,12.54
2019-05-10T07:52:17.275Z,12.51
2019-05-10T07:54:45.674Z,12.63
2019-05-10T07:57:13.314Z,12.67
2019-05-10T07:59:57.690Z,13.00
2019-05-10T08:02:32.821Z,13.34
2019-05-10T08:05:19.370Z,12.82
2019-05-10T08:07:49.364Z,12.43
2019-05-10T08:10:16.350Z,11.71
2019-05-10T08:12:45.582Z,11.63
2019-05-10T08:15:13.088Z,11.42
2019-05-10T08:17:45.367Z,11.57
2019-05-10T08:20:22.117Z,11.78
2019-05-10T08:22:41.556Z,12.59
2019-05-10T08:25:07.787Z,13.06
2019-05-10T08:27:34.948Z,12.58
2019-05-10T08:30:20.388Z,12.74
2019-05-10T08:32:34.610Z,12.81
2019-05-10T08:35:05.042Z,12.85
2019-05-10T08:37:35.955Z,12.65
2019-05-10T08:39:59.083Z,12.72
2019-05-10T08:42:40.932Z,13.48
2019-05-10T08:45:03.731Z,13.27
2019-05-10T08:47:27.609Z,13.61
2019-05-10T08:50:09.920Z,13.82
2019-05-10T08:52:27.287Z,14.45
2019-05-10T08:54:54.938Z,15.29
2019-05-10T08:57:22.270Z,17.17
2019-05-10T08:59:54.221Z,18.69
2019-05-10T09:02:23.100Z,17.61
2019-05-10T09:04:50.162Z,17.32
2019-05-10T09:07:16.663Z,15.17
2019-05-10T09:09:49.725Z,13.83
2019-05-10T09:12:12.692Z,13.76
2019-05-10T09:14:42.441Z,13.86
2019-05-10T09:17:17.169Z,13.69
2019-05-10T09:19:41.903Z,14.10
2019-05-10T09:22:07.088Z,13.50
2019-05-10T09:24:34.939Z,13.95
2019-05-10T09:27:03.428Z,14.27
2019-05-10T09:29:35.257Z,14.07
2019-05-10T09:32:04.006Z,14.25
2019-05-10T09:34:28.382Z,14.07
2019-05-10T09:36:55.535Z,13.80
2019-05-10T09:39:25.135Z,13.75
2019-05-10T09:41:52.811Z,13.27
2019-05-10T09:44:20.252Z,13.58
2019-05-10T09:46:47.243Z,13.94
2019-05-10T09:49:18.265Z,13.27
2019-05-10T09:51:43.166Z,13.61
2019-05-10T09:54:10.176Z,14.68
2019-05-10T09:56:39.557Z,14.74
2019-05-10T09:59:08.205Z,13.93
2019-05-10T10:01:37.139Z,14.51
2019-05-10T10:04:04.338Z,14.77
2019-05-10T10:06:31.367Z,14.27
2019-05-10T10:09:01.031Z,14.72
2019-05-10T10:11:27.972Z,14.50
2019-05-10T10:13:59.155Z,15.36
2019-05-10T10:16:23.972Z,15.19
2019-05-10T10:18:51.004Z,16.26
2019-05-10T10:21:27.282Z,16.05
2019-05-10T10:23:47.691Z,16.48
2019-05-10T10:26:20.383Z,15.38
2019-05-10T10:28:43.609Z,15.22
2019-05-10T10:31:25.057Z,15.02
2019-05-10T10:33:43.095Z,16.38
2019-05-10T10:36:10.806Z,14.31
2019-05-10T10:38:45.513Z,14.71
2019-05-10T10:41:08.330Z,15.53
2019-05-10T10:43:37.079Z,15.22
2019-05-10T10:46:04.320Z,15.44
2019-05-10T10:48:31.456Z,14.52
2019-05-10T10:50:59.930Z,15.11
2019-05-10T10:53:28.263Z,15.28
2019-05-10T10:56:02.488Z,14.25
2019-05-10T10:58:27.400Z,14.42
2019-05-10T11:00:55.044Z,15.60
2019-05-10T11:03:23.799Z,15.23
2019-05-10T11:05:51.060Z,14.57
2019-05-10T11:08:18.153Z,14.06
2019-05-10T11:10:45.224Z,14.60
2019-05-10T11:13:18.977Z,15.77
2019-05-10T11:15:42.148Z,15.72
2019-05-10T11:18:09.544Z,15.70
2019-05-10T11:20:41.931Z,15.75
2019-05-10T11:23:06.702Z,16.34
2019-05-10T11:25:33.890Z,16.57
2019-05-10T11:28:01.702Z,16.18
2019-05-10T11:30:29.278Z,16.95
2019-05-10T11:32:56.315Z,17.40
2019-05-10T11:35:28.438Z,17.25
2019-05-10T11:37:54.933Z,16.99
2019-05-10T11:40:30.806Z,18.27
2019-05-10T11:42:52.970Z,18.17
2019-05-10T11:45:26.217Z,17.10
2019-05-10T11:47:54.329Z,18.28
2019-05-10T11:50:31.361Z,18.21
2019-05-10T11:55:21.618Z,17.47
2019-05-10T11:57:56.676Z,17.71
2019-05-10T12:00:25.684Z,16.50
2019-05-10T12:03:03.454Z,16.00
2019-05-10T12:08:13.070Z,14.93
2019-05-10T12:10:58.252Z,15.03
2019-05-10T12:13:25.018Z,14.68
2019-05-10T12:15:52.028Z,15.01
2019-05-10T12:18:26.311Z,15.00
2019-05-10T12:21:00.397Z,15.32
2019-05-10T12:23:22.631Z,15.74
2019-05-10T12:25:59.930Z,15.61
2019-05-10T12:26:18.753Z,17.22
2019-05-10T12:26:19.108Z,16.05
2019-05-10T12:28:20.392Z,16.27
2019-05-10T12:30:44.283Z,16.62
2019-05-10T12:33:23.789Z,16.01
2019-05-10T12:35:46.958Z,16.86
2019-05-10T12:38:11.302Z,17.21
2019-05-10T12:40:38.455Z,18.00
2019-05-10T12:43:05.479Z,18.39
2019-05-10T12:45:32.515Z,16.24
2019-05-10T12:48:01.354Z,16.29
2019-05-10T12:50:28.500Z,17.06
2019-05-10T12:53:03.629Z,16.34
2019-05-10T12:55:24.444Z,16.84
2019-05-10T12:57:51.836Z,16.58
2019-05-10T13:00:20.962Z,15.89
2019-05-10T13:02:53.372Z,16.07
2019-05-10T13:05:16.999Z,17.11
2019-05-10T13:07:45.031Z,17.15
2019-05-10T13:10:13.128Z,15.32
2019-05-10T13:12:44.559Z,15.43
2019-05-10T13:15:09.552Z,15.75
2019-05-10T13:17:37.308Z,15.68
2019-05-10T13:20:05.184Z,15.84
2019-05-10T13:22:37.788Z,15.98
2019-05-10T13:25:01.221Z,14.52
2019-05-10T13:27:28.664Z,15.05
2019-05-10T13:29:56.016Z,15.49
2019-05-10T13:32:23.032Z,15.87
2019-05-10T13:34:50.078Z,16.27
2019-05-10T13:37:23.111Z,15.67
2019-05-10T13:39:46.563Z,15.39
2019-05-10T13:42:13.732Z,16.05
2019-05-10T13:44:42.985Z,15.96
2019-05-10T13:47:10.162Z,15.86
2019-05-10T13:49:37.348Z,14.99
2019-05-10T13:52:04.748Z,14.58
2019-05-10T13:54:36.077Z,14.73
2019-05-10T13:57:01.016Z,15.21
2019-05-10T13:59:28.267Z,14.97
2019-05-10T14:01:55.706Z,15.66
2019-05-10T14:04:23.330Z,14.97
2019-05-10T14:06:50.651Z,15.54
2019-05-10T14:09:20.903Z,16.36
2019-05-10T14:11:47.306Z,16.70
2019-05-10T14:14:20.036Z,15.22
2019-05-10T14:16:43.358Z,15.61
2019-05-10T14:19:15.824Z,15.40
2019-05-10T14:21:39.820Z,15.19
2019-05-10T14:24:08.981Z,15.10
2019-05-10T14:26:35.824Z,15.10
2019-05-10T14:29:03.312Z,14.88
2019-05-10T14:31:30.340Z,14.98
2019-05-10T14:34:14.874Z,15.98
2019-05-10T14:36:26.285Z,15.17
2019-05-10T14:39:27.265Z,14.67
2019-05-10T14:42:09.333Z,15.92
2019-05-10T14:44:38.425Z,16.17
2019-05-10T14:47:04.736Z,16.10
2019-05-10T14:49:31.771Z,15.83
2019-05-10T14:51:59.790Z,16.29
2019-05-10T14:54:41.565Z,16.13
2019-05-10T14:56:56.096Z,16.15
2019-05-10T14:59:23.356Z,15.74
2019-05-10T15:01:50.923Z,16.14
2019-05-10T15:04:43.655Z,15.62
2019-05-10T15:06:49.658Z,15.38
2019-05-10T15:09:21.478Z,15.06
2019-05-10T15:11:45.637Z,15.19
2019-05-10T15:14:12.702Z,14.80
2019-05-10T15:16:43.105Z,15.12
2019-05-10T15:19:10.159Z,14.69
2019-05-10T15:21:38.990Z,14.76
2019-05-10T15:24:06.015Z,14.38
2019-05-10T15:26:37.302Z,13.68
2019-05-10T15:29:02.070Z,13.59
2019-05-10T15:31:30.841Z,13.75
2019-05-10T15:33:58.516Z,13.86
2019-05-10T15:36:29.587Z,13.61
2019-05-10T15:38:54.449Z,13.97
2019-05-10T15:41:22.255Z,13.59
2019-05-10T15:43:55.006Z,13.63
2019-05-10T15:46:23.344Z,13.77
2019-05-10T15:48:51.937Z,13.34
2019-05-10T15:51:19.179Z,13.84
2019-05-10T15:53:46.693Z,13.89
2019-05-10T15:56:14.011Z,13.66
2019-05-10T15:58:42.592Z,14.36
2019-05-10T16:01:13.843Z,14.26
2019-05-10T16:03:40.902Z,14.44
2019-05-10T16:06:08.097Z,15.10
2019-05-10T16:08:35.310Z,15.16
2019-05-10T16:11:02.366Z,15.01
2019-05-10T16:13:29.529Z,15.04
2019-05-10T16:15:57.738Z,15.01
2019-05-10T16:18:26.047Z,15.32
2019-05-10T16:20:53.118Z,15.14
2019-05-10T16:23:20.518Z,14.94
2019-05-10T16:25:48.501Z,15.21
2019-05-10T16:28:20.806Z,15.64
2019-05-10T16:30:47.323Z,15.47
2019-05-10T16:33:15.898Z,14.90
2019-05-10T16:35:44.081Z,14.94
2019-05-10T16:38:13.124Z,15.00
2019-05-10T16:40:44.148Z,15.01
2019-05-10T16:43:13.947Z,15.01
2019-05-10T16:45:38.571Z,15.54
2019-05-10T16:48:07.269Z,15.65
2019-05-10T16:50:35.370Z,15.62
2019-05-10T16:53:05.675Z,15.64
2019-05-10T16:55:35.565Z,15.31
2019-05-10T16:58:01.286Z,15.18
2019-05-10T17:00:31.090Z,14.66
2019-05-10T17:03:03.049Z,14.74
2019-05-10T17:05:30.910Z,13.83
2019-05-10T17:07:59.082Z,13.43
2019-05-10T17:10:32.914Z,13.00
2019-05-10T17:12:59.560Z,12.59
2019-05-10T17:15:26.069Z,12.41
2019-05-10T17:17:53.854Z,12.07
2019-05-10T17:20:20.917Z,11.82
2019-05-10T17:22:48.347Z,11.70
2019-05-10T17:25:18.533Z,11.23
2019-05-10T17:28:01.298Z,11.26
2019-05-10T17:30:37.551Z,11.00
2019-05-10T17:33:15.871Z,10.75
2019-05-10T17:35:45.566Z,10.95
2019-05-10T17:38:14.100Z,11.07
2019-05-10T17:40:46.856Z,10.80
2019-05-10T17:43:20.935Z,11.03
2019-05-10T17:45:55.315Z,10.91
2019-05-10T17:48:52.889Z,11.34
2019-05-10T17:51:20.218Z,11.35
2019-05-10T17:53:47.471Z,11.16
2019-05-10T17:56:15.089Z,10.97
2019-05-10T17:58:42.175Z,11.01
2019-05-10T18:01:09.329Z,11.14
2019-05-10T18:03:39.466Z,11.39
2019-05-10T18:06:24.206Z,11.50
2019-05-10T18:08:46.770Z,12.11
2019-05-10T18:11:15.583Z,12.36
2019-05-10T18:13:42.793Z,11.81
2019-05-10T18:16:11.004Z,12.29
2019-05-10T18:18:46.238Z,12.08
2019-05-10T18:21:07.809Z,11.61
2019-05-10T18:23:35.099Z,11.36
2019-05-10T18:26:02.303Z,11.80
2019-05-10T18:28:30.918Z,11.32
2019-05-10T18:30:58.027Z,11.54
2019-05-10T18:33:25.195Z,11.22
2019-05-10T18:35:54.513Z,11.27
2019-05-10T18:38:21.951Z,11.49
2019-05-10T18:40:48.951Z,11.66
2019-05-10T18:43:15.975Z,11.46
2019-05-10T18:45:43.272Z,11.21
2019-05-10T18:48:12.050Z,11.33
2019-05-10T18:50:39.862Z,11.20
2019-05-10T18:53:08.146Z,10.88
2019-05-10T18:55:35.148Z,10.79
2019-05-10T18:58:02.815Z,10.73
2019-05-10T19:00:29.819Z,10.66
2019-05-10T19:02:57.613Z,10.74
2019-05-10T19:05:30.887Z,10.78
2019-05-10T19:08:02.959Z,10.80
2019-05-10T19:10:22.904Z,10.92
2019-05-10T19:12:59.507Z,10.98
2019-05-10T19:15:19.695Z,10.81
2019-05-10T19:17:47.360Z,10.79
2019-05-10T19:20:16.353Z,10.70
2019-05-10T19:22:44.342Z,10.60
2019-05-10T19:25:14.232Z,10.71
2019-05-10T19:27:44.167Z,10.73
2019-05-10T19:30:10.116Z,10.78
2019-05-10T19:32:37.514Z,11.07
2019-05-10T19:35:05.304Z,11.08
2019-05-10T19:37:34.553Z,11.19
2019-05-10T19:40:01.413Z,11.43
2019-05-10T19:42:31.579Z,11.29
2019-05-10T19:44:58.099Z,11.39
2019-05-10T19:47:25.106Z,11.32
2019-05-10T19:49:53.556Z,11.48
2019-05-10T19:52:26.043Z,11.51
2019-05-10T19:54:50.628Z,11.47
2019-05-10T19:57:18.923Z,11.46
2019-05-10T19:59:48.942Z,11.47
2019-05-10T20:02:15.428Z,11.37
2019-05-10T20:04:42.503Z,10.96
2019-05-10T20:07:09.758Z,10.67
2019-05-10T20:09:37.497Z,10.73
2019-05-10T20:12:04.836Z,10.96
2019-05-10T20:14:33.092Z,10.91
2019-05-10T20:17:02.919Z,11.04
2019-05-10T20:19:29.951Z,11.22
2019-05-10T20:21:57.601Z,11.45
2019-05-10T20:24:25.049Z,11.48
2019-05-10T20:26:52.478Z,11.43
2019-05-10T20:29:19.514Z,11.33
2019-05-10T20:31:46.504Z,11.17
2019-05-10T20:34:14.020Z,11.23
2019-05-10T20:36:41.184Z,11.30
2019-05-10T20:39:08.193Z,11.35
2019-05-10T20:41:35.273Z,10.92
2019-05-10T20:44:02.743Z,10.82
2019-05-10T20:46:29.797Z,10.99
2019-05-10T20:48:57.564Z,11.08
2019-05-10T20:51:24.584Z,11.07
2019-05-10T20:53:52.834Z,10.50
2019-05-10T20:56:19.858Z,10.21
2019-05-10T20:58:50.647Z,10.34
2019-05-10T21:01:17.662Z,10.50
2019-05-10T21:03:45.058Z,10.61
2019-05-10T21:06:12.112Z,10.56
2019-05-10T21:08:41.307Z,10.44
2019-05-10T21:11:08.448Z,10.56
2019-05-10T21:13:36.466Z,10.60
2019-05-10T21:16:04.434Z,10.50
2019-05-10T21:18:32.870Z,10.46
2019-05-10T21:20:59.860Z,10.39
2019-05-10T21:23:27.252Z,10.31
2019-05-10T21:25:54.271Z,10.30
2019-05-10T21:28:21.339Z,10.30
2019-05-10T21:30:48.378Z,10.26
2019-05-10T21:33:15.869Z,9.85
2019-05-10T21:35:42.847Z,9.66
2019-05-10T21:38:09.975Z,9.64
2019-05-10T21:40:37.301Z,9.53
2019-05-10T21:43:04.640Z,9.66
2019-05-10T21:45:34.709Z,9.76
2019-05-10T21:48:02.368Z,9.73
2019-05-10T21:50:29.402Z,10.00
2019-05-10T21:52:56.773Z,9.98
2019-05-10T21:55:23.752Z,10.02
2019-05-10T21:57:52.465Z,9.99
2019-05-10T22:00:23.216Z,9.99
2019-05-10T22:02:50.619Z,9.98
2019-05-10T22:05:17.645Z,9.94
2019-05-10T22:07:44.785Z,9.96
2019-05-10T22:10:13.985Z,9.99
2019-05-10T22:12:41.621Z,9.93
2019-05-10T22:15:09.002Z,9.95
2019-05-10T22:17:36.082Z,10.01
2019-05-10T22:20:03.419Z,9.94
2019-05-10T22:22:31.066Z,9.98
2019-05-10T22:24:58.104Z,9.98
2019-05-10T22:27:25.151Z,9.91
2019-05-10T22:29:52.160Z,9.81
2019-05-10T22:32:19.661Z,9.51
2019-05-10T22:34:46.875Z,9.61
2019-05-10T22:37:13.985Z,9.84
2019-05-10T22:39:40.993Z,9.92
2019-05-10T22:42:08.361Z,9.83
2019-05-10T22:44:35.441Z,9.73
2019-05-10T22:47:02.482Z,9.55
2019-05-10T22:49:29.497Z,9.33
2019-05-10T22:51:56.977Z,9.23
2019-05-10T22:54:24.353Z,9.14
2019-05-10T22:56:51.387Z,9.06
2019-05-10T22:59:18.401Z,9.04
2019-05-10T23:01:45.810Z,9.05
2019-05-10T23:04:12.821Z,9.18
2019-05-10T23:06:39.885Z,9.51
2019-05-10T23:09:23.349Z,9.55
2019-05-10T23:11:37.048Z,9.25
2019-05-10T23:14:04.096Z,9.27
2019-05-10T23:16:31.145Z,9.42
2019-05-10T23:18:58.577Z,9.21
2019-05-10T23:21:25.649Z,9.21
2019-05-10T23:23:52.771Z,9.15
2019-05-10T23:26:19.949Z,9.11
2019-05-10T23:28:46.998Z,9.11
2019-05-10T23:31:14.249Z,9.19
2019-05-10T23:33:41.562Z,9.12
2019-05-10T23:36:09.014Z,9.05
2019-05-10T23:38:38.364Z,9.05
2019-05-10T23:41:05.444Z,9.08
2019-05-10T23:43:32.557Z,9.09
2019-05-10T23:46:01.037Z,8.99
2019-05-10T23:48:28.289Z,9.02
2019-05-10T23:50:55.316Z,8.98
2019-05-10T23:53:22.649Z,8.95
2019-05-10T23:55:50.257Z,8.84
2019-05-10T23:58:17.313Z,8.96
